Alamogordo White Sands Regional Airport
KALM : now visible

Airfield :











YOU CAN JOIN US ON...

 
LOGIN :

Register | Disclaimer

   EN    FR    IT 

 









Legend :    VFR   Marginal VFR   IFR   Intensive IFR   Very Intensive IFR
Visi :
Ceiling :
>= 8 km
>= 3000ft
5 to 8 km
1000 to 3000 ft
1500m to 5 km
500 to 1000 ft
800 to 1500m
200 to 500 ft
< 800m
< 200 ft
Symbols :   Thunderstorms  Fog  Heavy snow  Heavy precipitations  Wind > 20 kt







- Airport Elevation : 4200 ft
- IATA code : ALM


KALM - Alamogordo White Sands Regional

CURRENT METAR :
  • 201955Z AUTO 22010KT 10SM CLR 29/13 A2999 RMK AO2

EXPIRED METARs :
  • 201935Z AUTO 16007KT 10SM CLR 30/13 A3000 RMK AO2
  • 201915Z AUTO 14007KT 10SM CLR 29/14 A3001 RMK AO2
  • 201855Z AUTO 17007KT 10SM CLR 29/15 A3001 RMK AO2
  • 201835Z AUTO 17009KT 10SM CLR 28/14 A3002 RMK AO2
  • 201815Z AUTO 17013KT 10SM CLR 28/15 A3003 RMK AO2
  • 201755Z AUTO 19011G15KT 10SM CLR 27/15 A3003 RMK AO2
  • 201735Z AUTO 18010KT 10SM CLR 27/16 A3003 RMK AO2
  • 201715Z AUTO 16007KT 020V030 10SM CLR 25/17 A3004 RMK AO2

TAF N/A
No reported NOTAMs for that airfield.



MET'MAP, your aeronautical weather chart ! - Copyright ORBIFLY December 2007 - Disclaimer

ORBIFLY MET'MAP TEAM :

Programming & Development : Alexandra Zaïnal
Concept & Development : Baudouin d'Aumeries
Co-Development & Prog : Marc-Olivier Méhu
Technical & hardware support : Manuel Goepfert

Contact : metmap@orbifly.com




SOURCES & CREDITS :

   NOAA       Earth
Advisory